| time (UTC) | temp C | wind direction | speed KPH | gust KPH | rain 1hr cm | rain 24hr cm | rain mn cm | humidity % | barometer mb |
| 20260903100510 | 17 | 33 | 9.7 | 22.5 | 0.00 | 0.00 | 0.00 | 45 | 857.7 |
| 20260903095510 | 16 | 41 | 8.0 | 25.7 | 0.00 | 0.00 | 0.00 | 46 | 857.7 |
| 20260903094122 | 16 | 28 | 4.8 | 22.5 | 0.00 | 0.00 | 0.00 | 49 | 857.7 |
| 20260903093510 | 16 | 44 | 6.4 | 24.1 | 0.00 | 0.00 | 0.00 | 49 | 857.8 |
| 20260903091123 | 16 | 24 | 8.0 | 32.2 | 0.00 | 0.00 | 0.00 | 52 | 857.9 |
| 20260903090510 | 16 | 38 | 11.3 | 32.2 | 0.00 | 0.00 | 0.00 | 48 | 857.9 |
| 20260903085509 | 16 | 33 | 3.2 | 20.9 | 0.00 | 0.00 | 0.00 | 50 | 857.8 |
| 20260903084122 | 16 | 31 | 6.4 | 22.5 | 0.00 | 0.00 | 0.00 | 50 | 857.8 |
| 20260903083510 | 16 | 41 | 4.8 | 20.9 | 0.00 | 0.00 | 0.00 | 50 | 857.8 |
| 20260903082510 | 16 | 48 | 8.0 | 24.1 | 0.00 | 0.00 | 0.00 | 50 | 857.8 |
| 20260903081123 | 15 | 41 | 6.4 | 25.7 | 0.00 | 0.00 | 0.00 | 50 | 857.8 |
| 20260903080510 | 15 | 29 | 4.8 | 17.7 | 0.00 | 0.00 | 0.00 | 52 | 857.7 |
| 20260903075510 | 15 | 29 | 9.7 | 27.4 | 0.00 | 0.00 | 0.00 | 52 | 857.7 |
| 20260903074123 | 15 | 25 | 8.0 | 22.5 | 0.00 | 0.00 | 0.00 | 52 | 857.7 |
| 20260903073509 | 15 | 26 | 6.4 | 27.4 | 0.00 | 0.00 | 0.00 | 54 | 857.7 |
| 20260903072509 | 15 | 34 | 9.7 | 24.1 | 0.00 | 0.00 | 0.00 | 54 | 857.7 |
| 20260903071123 | 15 | 48 | 8.0 | 19.3 | 0.00 | 0.00 | 0.00 | 57 | 857.7 |
| 20260903070510 | 14 | 38 | 6.4 | 20.9 | 0.00 | 0.00 | 0.00 | 57 | 857.7 |
| 20260903065510 | 13 | 38 | 4.8 | 22.5 | 0.00 | 0.00 | 0.00 | 57 | 857.7 |
| 20260903064122 | 13 | 51 | 4.8 | 20.9 | 0.00 | 0.00 | 0.00 | 58 | 857.5 |
| 20260903063509 | 12 | 84 | 4.8 | 19.3 | 0.00 | 0.00 | 0.00 | 60 | 857.6 |
| 20260903062510 | 12 | 76 | 6.4 | 16.1 | 0.00 | 0.00 | 0.00 | 60 | 857.6 |
| 20260903061123 | 12 | 93 | 3.2 | 17.7 | 0.00 | 0.00 | 0.00 | 60 | 857.6 |
| 20260903060510 | 12 | 78 | 3.2 | 14.5 | 0.00 | 0.00 | 0.00 | 62 | 857.6 |
| 20260903055509 | 12 | 26 | 3.2 | 19.3 | 0.00 | 0.00 | 0.00 | 63 | 857.5 |
| 20260903054122 | 12 | 53 | 4.8 | 16.1 | 0.00 | 0.00 | 0.00 | 64 | 857.4 |
| 20260903053510 | 12 | 69 | 6.4 | 20.9 | 0.00 | 0.00 | 0.00 | 62 | 857.4 |
| 20260903052510 | 12 | 60 | 3.2 | 14.5 | 0.00 | 0.00 | 0.00 | 63 | 857.3 |
| 20260903051123 | 12 | 58 | 3.2 | 12.9 | 0.00 | 0.00 | 0.00 | 62 | 857.3 |
| 20260903050509 | 12 | 360 | 0.0 | 8.0 | 0.00 | 0.00 | 0.00 | 62 | 857.3 |
| 20260903045510 | 12 | 106 | 4.8 | 12.9 | 0.00 | 0.00 | 0.00 | 60 | 857.2 |
| 20260903044122 | 12 | 115 | 4.8 | 11.3 | 0.00 | 0.00 | 0.00 | 62 | 857.3 |
| 20260903043509 | 12 | 136 | 4.8 | 14.5 | 0.00 | 0.00 | 0.00 | 61 | 857.3 |
| 20260903042510 | 12 | 178 | 3.2 | 9.7 | 0.00 | 0.00 | 0.00 | 62 | 857.3 |
| 20260903041122 | 12 | 127 | 4.8 | 12.9 | 0.00 | 0.00 | 0.00 | 63 | 857.3 |
| 20260903040510 | 11 | 125 | 1.6 | 6.4 | 0.00 | 0.00 | 0.00 | 66 | 857.3 |
| 20260903035510 | 12 | 50 | 3.2 | 12.9 | 0.00 | 0.00 | 0.00 | 60 | 857.4 |
| 20260903034509 | 11 | 54 | 3.2 | 11.3 | 0.00 | 0.00 | 0.00 | 64 | 857.4 |
| 20260903033510 | 11 | 43 | 0.0 | 9.7 | 0.00 | 0.00 | 0.00 | 66 | 857.4 |
| 20260903032510 | 12 | 76 | 3.2 | 9.7 | 0.00 | 0.00 | 0.00 | 62 | 857.4 |
| 20260903031123 | 11 | 67 | 3.2 | 8.0 | 0.00 | 0.00 | 0.00 | 64 | 857.4 |
| 20260903030510 | 12 | 76 | 3.2 | 8.0 | 0.00 | 0.00 | 0.00 | 63 | 857.4 |
| 20260903025510 | 12 | 113 | 4.8 | 12.9 | 0.00 | 0.00 | 0.00 | 60 | 857.4 |
| 20260903024510 | 12 | 96 | 3.2 | 9.7 | 0.00 | 0.00 | 0.00 | 60 | 857.5 |
| 20260903023510 | 12 | 87 | 4.8 | 14.5 | 0.00 | 0.00 | 0.00 | 60 | 857.4 |
| 20260903022510 | 12 | 100 | 3.2 | 9.7 | 0.00 | 0.00 | 0.00 | 62 | 857.5 |
| 20260903021122 | 12 | 114 | 3.2 | 8.0 | 0.00 | 0.00 | 0.00 | 64 | 857.5 |
| 20260903020510 | 12 | 179 | 1.6 | 4.8 | 0.00 | 0.00 | 0.00 | 62 | 857.6 |
| 20260903015510 | 12 | 93 | 1.6 | 6.4 | 0.00 | 0.00 | 0.00 | 64 | 857.6 |
| 20260903014122 | 12 | 332 | 1.6 | 16.1 | 0.00 | 0.00 | 0.00 | 62 | 857.6 |
| 20260903013509 | 12 | 344 | 0.0 | 16.1 | 0.00 | 0.00 | 0.00 | 67 | 857.6 |
| 20260903012509 | 12 | 13 | 1.6 | 9.7 | 0.00 | 0.00 | 0.00 | 66 | 857.6 |
| 20260903011123 | 12 | 18 | 3.2 | 11.3 | 0.00 | 0.00 | 0.00 | 66 | 857.6 |
| 20260903010510 | 12 | 33 | 4.8 | 11.3 | 0.00 | 0.00 | 0.00 | 64 | 857.6 |
| 20260903005510 | 12 | 22 | 6.4 | 11.3 | 0.00 | 0.00 | 0.00 | 67 | 857.6 |
| 20260903004123 | 12 | 31 | 8.0 | 14.5 | 0.00 | 0.00 | 0.00 | 64 | 857.5 |
| 20260903003510 | 12 | 1 | 3.2 | 12.9 | 0.00 | 0.00 | 0.00 | 64 | 857.5 |
| 20260903002510 | 12 | 19 | 3.2 | 12.9 | 0.00 | 0.00 | 0.00 | 69 | 857.5 |
| 20260903001522 | 11 | 312 | 1.6 | 11.3 | 0.00 | 0.00 | 0.00 | 70 | 857.5 |
| 20260903000509 | 12 | 18 | 1.6 | 9.7 | 0.00 | 0.00 | 0.00 | 71 | 857.6 |
| 20260902235509 | 12 | 87 | 3.2 | 11.3 | 0.00 | 0.00 | 0.00 | 64 | 857.5 |
| 20260902234123 | 12 | 105 | 1.6 | 8.0 | 0.00 | 0.00 | 0.00 | 64 | 857.5 |
| 20260902233509 | 12 | 103 | 1.6 | 11.3 | 0.00 | 0.00 | 0.00 | 74 | 857.6 |
| 20260902232509 | 11 | 73 | 1.6 | 16.1 | 0.00 | 0.00 | 0.00 | 72 | 857.6 |
| 20260902231510 | 11 | 130 | 1.6 | 8.0 | 0.00 | 0.00 | 0.00 | 82 | 857.6 |
| 20260902230509 | 11 | 148 | 8.0 | 11.3 | 0.00 | 0.00 | 0.00 | 83 | 857.6 |
| 20260902225510 | 10 | 151 | 11.3 | 14.5 | 0.00 | 0.00 | 0.00 | 86 | 857.6 |
| 20260902224123 | 10 | 150 | 9.7 | 12.9 | 0.00 | 0.00 | 0.00 | 89 | 857.5 |
| 20260902223511 | 10 | 151 | 9.7 | 14.5 | 0.00 | 0.00 | 0.00 | 86 | 857.4 |
| 20260902222510 | 11 | 156 | 9.7 | 12.9 | 0.00 | 0.00 | 0.00 | 84 | 857.4 |
| 20260902221123 | 10 | 155 | 11.3 | 14.5 | 0.00 | 0.00 | 0.00 | 91 | 857.4 |
| 20260902220509 | 11 | 171 | 8.0 | 12.9 | 0.00 | 0.00 | 0.00 | 87 | 857.4 |
| 20260902215509 | 11 | 164 | 11.3 | 17.7 | 0.00 | 0.00 | 0.00 | 88 | 857.4 |
| 20260902214123 | 11 | 156 | 12.9 | 24.1 | 0.00 | 0.00 | 0.00 | 92 | 857.6 |
| 20260902213509 | 11 | 152 | 14.5 | 22.5 | 0.00 | 0.00 | 0.00 | 96 | 857.5 |
| 20260902211123 | 12 | 174 | 8.0 | 11.3 | 0.00 | 0.00 | 0.00 | 90 | 857.3 |
| 20260902210510 | 12 | 162 | 8.0 | 12.9 | 0.00 | 0.00 | 0.00 | 89 | 857.2 |
| 20260902205510 | 12 | 161 | 4.8 | 8.0 | 0.00 | 0.00 | 0.00 | 88 | 857.2 |
| 20260902204124 | 12 | 146 | 4.8 | 6.4 | 0.00 | 0.00 | 0.00 | 88 | 857.2 |
| 20260902203509 | 12 | 155 | 4.8 | 6.4 | 0.00 | 0.00 | 0.00 | 87 | 857.2 |
| 20260902202510 | 12 | 184 | 1.6 | 4.8 | 0.00 | 0.00 | 0.00 | 86 | 857.4 |
| 20260902201123 | 12 | 172 | 1.6 | 3.2 | 0.00 | 0.00 | 0.00 | 86 | 857.3 |
| 20260902200510 | 12 | 185 | 1.6 | 4.8 | 0.00 | 0.00 | 0.00 | 88 | 857.1 |
| 20260902195510 | 12 | 82 | 0.0 | 6.4 | 0.00 | 0.00 | 0.00 | 89 | 857.1 |
| 20260902194123 | 12 | 145 | 1.6 | 6.4 | 0.00 | 0.00 | 0.00 | 89 | 857.1 |
| 20260902193510 | 12 | 154 | 6.4 | 8.0 | 0.00 | 0.00 | 0.00 | 89 | 857.1 |
| 20260902192509 | 12 | 147 | 4.8 | 8.0 | 0.00 | 0.00 | 0.00 | 88 | 857.1 |
| 20260902191123 | 12 | 172 | 4.8 | 9.7 | 0.00 | 0.00 | 0.00 | 87 | 857.0 |
| 20260902190509 | 13 | 152 | 8.0 | 9.7 | 0.00 | 0.00 | 0.00 | 86 | 856.9 |
| 20260902185510 | 13 | 156 | 4.8 | 8.0 | 0.00 | 0.00 | 0.00 | 85 | 856.8 |
| 20260902184123 | 13 | 154 | 4.8 | 6.4 | 0.00 | 0.00 | 0.00 | 86 | 856.7 |
| 20260902183510 | 13 | 160 | 4.8 | 8.0 | 0.00 | 0.00 | 0.00 | 85 | 856.6 |
| 20260902182510 | 13 | 178 | 4.8 | 9.7 | 0.00 | 0.00 | 0.00 | 84 | 856.6 |
| 20260902181123 | 13 | 182 | 4.8 | 9.7 | 0.00 | 0.00 | 0.00 | 84 | 856.4 |
| 20260902180510 | 13 | 181 | 6.4 | 9.7 | 0.00 | 0.00 | 0.00 | 85 | 856.4 |
| 20260902175510 | 13 | 206 | 3.2 | 9.7 | 0.00 | 0.00 | 0.00 | 85 | 856.3 |
| 20260902174123 | 13 | 167 | 6.4 | 11.3 | 0.00 | 0.00 | 0.00 | 84 | 856.2 |
| 20260902173509 | 14 | 170 | 6.4 | 11.3 | 0.00 | 0.00 | 0.00 | 83 | 856.2 |
| 20260902172510 | 14 | 164 | 6.4 | 11.3 | 0.00 | 0.00 | 0.00 | 74 | 856.0 |
| 20260902171123 | 15 | 163 | 8.0 | 11.3 | 0.00 | 0.00 | 0.00 | 74 | 855.9 |
| 20260902170510 | 15 | 163 | 6.4 | 9.7 | 0.00 | 0.00 | 0.00 | 71 | 855.8 |
| 20260902165510 | 15 | 185 | 3.2 | 8.0 | 0.00 | 0.00 | 0.00 | 70 | 855.9 |
| 20260902164123 | 15 | 179 | 6.4 | 9.7 | 0.00 | 0.00 | 0.00 | 74 | 855.8 |
| 20260902163510 | 15 | 161 | 8.0 | 12.9 | 0.00 | 0.00 | 0.00 | 71 | 855.8 |
| 20260902162510 | 15 | 158 | 9.7 | 12.9 | 0.00 | 0.00 | 0.00 | 71 | 855.9 |
| 20260902161123 | 15 | 160 | 6.4 | 11.3 | 0.00 | 0.00 | 0.00 | 67 | 855.9 |
| 20260902160509 | 15 | 179 | 8.0 | 12.9 | 0.00 | 0.00 | 0.00 | 67 | 855.9 |
| 20260902155510 | 16 | 177 | 8.0 | 12.9 | 0.00 | 0.00 | 0.00 | 65 | 855.9 |
| 20260902154123 | 16 | 163 | 8.0 | 12.9 | 0.00 | 0.00 | 0.00 | 67 | 855.9 |
| 20260902153510 | 16 | 174 | 6.4 | 14.5 | 0.00 | 0.00 | 0.00 | 68 | 856.0 |
| 20260902152509 | 16 | 181 | 6.4 | 11.3 | 0.00 | 0.00 | 0.00 | 74 | 856.0 |
| 20260902151123 | 16 | 170 | 6.4 | 12.9 | 0.00 | 0.00 | 0.00 | 74 | 856.0 |
| 20260902150510 | 16 | 175 | 8.0 | 12.9 | 0.00 | 0.00 | 0.00 | 70 | 856.0 |
| 20260902145510 | 16 | 174 | 9.7 | 16.1 | 0.00 | 0.00 | 0.00 | 70 | 856.0 |
| 20260902144123 | 16 | 174 | 6.4 | 14.5 | 0.00 | 0.00 | 0.00 | 70 | 856.0 |
| 20260902143509 | 16 | 158 | 8.0 | 17.7 | 0.00 | 0.00 | 0.00 | 67 | 855.9 |
| 20260902142510 | 17 | 177 | 8.0 | 16.1 | 0.00 | 0.00 | 0.00 | 67 | 856.0 |
| 20260902141123 | 16 | 168 | 8.0 | 14.5 | 0.00 | 0.00 | 0.00 | 67 | 856.0 |
| 20260902140510 | 16 | 159 | 9.7 | 17.7 | 0.00 | 0.00 | 0.00 | 66 | 856.0 |
| 20260902135510 | 16 | 176 | 9.7 | 17.7 | 0.00 | 0.00 | 0.00 | 69 | 856.0 |
| 20260902134121 | 16 | 183 | 6.4 | 14.5 | 0.00 | 0.00 | 0.00 | 68 | 856.0 |
| 20260902133510 | 17 | 157 | 11.3 | 22.5 | 0.00 | 0.00 | 0.00 | 68 | 855.9 |
| 20260902132510 | 16 | 153 | 12.9 | 20.9 | 0.00 | 0.00 | 0.00 | 68 | 856.0 |
| 20260902131123 | 16 | 172 | 9.7 | 19.3 | 0.00 | 0.00 | 0.00 | 68 | 856.1 |
| 20260902130510 | 17 | 172 | 8.0 | 17.7 | 0.00 | 0.00 | 0.00 | 68 | 856.2 |
| 20260902125510 | 17 | 172 | 9.7 | 22.5 | 0.00 | 0.00 | 0.00 | 63 | 856.2 |
| 20260902124122 | 17 | 180 | 9.7 | 17.7 | 0.00 | 0.00 | 0.00 | 63 | 856.2 |
| 20260902123510 | 17 | 181 | 8.0 | 20.9 | 0.00 | 0.00 | 0.00 | 66 | 856.2 |
| 20260902122510 | 17 | 178 | 9.7 | 25.7 | 0.00 | 0.00 | 0.00 | 66 | 856.3 |
| 20260902121123 | 17 | 173 | 8.0 | 17.7 | 0.00 | 0.00 | 0.00 | 66 | 856.5 |
| 20260902120509 | 17 | 168 | 8.0 | 17.7 | 0.00 | 0.00 | 0.00 | 63 | 856.5 |
| 20260902115509 | 17 | 186 | 8.0 | 16.1 | 0.00 | 0.00 | 0.00 | 63 | 856.6 |
| 20260902114123 | 17 | 177 | 9.7 | 20.9 | 0.00 | 0.00 | 0.00 | 63 | 856.6 |
| 20260902113510 | 16 | 159 | 11.3 | 20.9 | 0.00 | 0.00 | 0.00 | 67 | 856.7 |
| 20260902112510 | 16 | 160 | 11.3 | 20.9 | 0.00 | 0.00 | 0.00 | 67 | 856.7 |
| 20260902111123 | 16 | 162 | 11.3 | 22.5 | 0.00 | 0.00 | 0.00 | 78 | 856.9 |
| 20260902110510 | 16 | 166 | 11.3 | 25.7 | 0.00 | 0.00 | 0.00 | 78 | 856.9 |
| 20260902105509 | 15 | 160 | 12.9 | 22.5 | 0.00 | 0.00 | 0.00 | 78 | 857.0 |
| 20260902104123 | 15 | 163 | 12.9 | 25.7 | 0.00 | 0.00 | 0.00 | 78 | 857.1 |
| 20260902103510 | 15 | 154 | 12.9 | 20.9 | 0.00 | 0.00 | 0.00 | 78 | 857.2 |
| 20260902102509 | 15 | 159 | 11.3 | 20.9 | 0.00 | 0.00 | 0.00 | 79 | 857.2 |
| 20260902101123 | 15 | 155 | 11.3 | 20.9 | 0.00 | 0.00 | 0.00 | 76 | 857.3 |